Orem, UT (84057)

5:29 AM MST on December 26, 2014 (GMT -0700)
Heatheridge | Change Station
CLOSE
Current Station
Personal Weather Station
Location: Orem, UT
Elevation: 5095 ft
Nearby Weather Stations

Elev 5095 ft 40.33 °N, 111.68 °W | Updated 10 seconds ago

Mostly Cloudy
Mostly Cloudy
21.6 °F
Feels Like 22 °F
N
0.0
Wind Variable Wind from North
Gusts 0.0 mph

Today
High -- | Low -- °F
--% Chance of Precip.
Yesterday
High -- | Low -- °F
Precip. -- in
7:48 AM 5:06 PM
Waxing Crescent, 25% visible
Pressure 29.86 in
Visibility 10.0 miles
Clouds Few 2200 ft
Windchill 22 °F
Dew Point 18 °F
Humidity 86%
Rainfall 0.00 in
Snow Depth Not available.
UV 0 out of 12
Pollen .10 out of 12
Air Quality Not available.
Flu Activity Not available.
METAR KPVU 261215Z AUTO 01003KT 10SM FEW022 M04/M07 A2986 RMK AO1

More Conditions Fewer Conditions

Pressure 29.86 in
Visibility 10.0 miles
Clouds Few 2200 ft
Windchill 22 °F
Dew Point 18 °F
Humidity 86%
Rainfall 0.00 in
Snow Depth Not available.
UV 0 out of 12
Pollen .10 out of 12
Air Quality Not available.
Flu Activity Not available.
METAR KPVU 261215Z AUTO 01003KT 10SM FEW022 M04/M07 A2986 RMK AO1

More Conditions Fewer Conditions

10-Day Weather Forecast

Almanac

Astronomy

Dec. 26, 2014 Rise Set
Actual Time
Civil Twilight
Nautical Twilight
Astronomical Twilight
Moon
Length of Visible Light
Length of Day
Tomorrow will be .
, % of the Moon is Illuminated

Today's Extremes

State Highs State Lows

Community

WunderPhotos

Upload Photos

1,780,585 photos uploaded!

WunderBlogs® & News

Nearby

Air Quality

  Air Quality AQ Index Pollutant
Not available.

Snow Depth

Station Depth Elevation

Earthquake Activity

City Distance Mag. Time & Date
Minimum magnitude displayed is 2.5.

Coastal Water Temperatures

Place Temperature

Nearby Weather Stations